createdAt,value
2022-09-23T00:00:35.223Z,0.70
2022-09-23T00:03:01.812Z,0.77
2022-09-23T00:05:29.813Z,0.77
2022-09-23T00:07:57.283Z,0.70
2022-09-23T00:10:25.158Z,0.80
2022-09-23T00:12:51.722Z,0.80
2022-09-23T00:15:18.458Z,0.70
2022-09-23T00:17:45.262Z,0.80
2022-09-23T00:20:12.176Z,0.70
2022-09-23T00:22:39.051Z,0.70
2022-09-23T00:25:07.018Z,0.68
2022-09-23T00:27:33.991Z,0.90
2022-09-23T00:30:01.151Z,0.90
2022-09-23T00:32:28.013Z,0.80
2022-09-23T00:34:54.492Z,0.75
2022-09-23T00:37:21.446Z,0.80
2022-09-23T00:39:47.977Z,0.80
2022-09-23T00:42:20.837Z,0.70
2022-09-23T00:44:48.960Z,0.77
2022-09-23T00:47:21.407Z,0.80
2022-09-23T00:49:54.478Z,0.75
2022-09-23T00:52:23.660Z,1.02
2022-09-23T00:54:53.389Z,0.70
2022-09-23T00:57:20.185Z,0.80
2022-09-23T00:59:48.576Z,0.70
2022-09-23T01:02:15.584Z,0.88
2022-09-23T01:04:42.850Z,0.80
2022-09-23T01:07:09.373Z,0.80
2022-09-23T01:09:36.379Z,0.80
2022-09-23T01:12:22.657Z,0.90
2022-09-23T01:15:14.440Z,0.90
2022-09-23T01:18:08.024Z,1.00
2022-09-23T01:20:34.565Z,0.80
2022-09-23T01:23:12.792Z,0.98
2022-09-23T01:25:42.248Z,0.70
2022-09-23T01:28:14.729Z,0.68
2022-09-23T01:31:02.841Z,0.90
2022-09-23T01:33:41.246Z,0.93
2022-09-23T01:36:10.400Z,0.80
2022-09-23T01:38:42.984Z,0.80
2022-09-23T01:41:13.261Z,0.80
2022-09-23T01:43:58.526Z,0.77
2022-09-23T01:46:51.278Z,0.90
2022-09-23T01:49:30.002Z,1.00
2022-09-23T01:52:06.036Z,0.90
2022-09-23T01:54:39.033Z,1.10
2022-09-23T01:57:11.576Z,1.15
2022-09-23T01:59:40.257Z,0.93
2022-09-23T02:02:32.927Z,0.80
2022-09-23T02:05:08.014Z,1.05
2022-09-23T02:07:52.612Z,1.00
2022-09-23T02:10:25.498Z,1.00
2022-09-23T02:12:57.334Z,1.02
2022-09-23T02:15:28.759Z,0.88
2022-09-23T02:18:00.037Z,1.05
2022-09-23T02:20:30.599Z,1.17
2022-09-23T02:23:03.624Z,1.13
2022-09-23T02:25:35.551Z,1.00
2022-09-23T02:28:29.128Z,0.90
2022-09-23T02:31:11.865Z,0.90
2022-09-23T02:33:43.896Z,1.00
2022-09-23T02:36:15.342Z,0.95
2022-09-23T02:38:51.195Z,1.23
2022-09-23T02:41:20.799Z,0.90
2022-09-23T02:43:59.601Z,0.98
2022-09-23T02:46:26.825Z,0.90
2022-09-23T02:49:04.591Z,1.10
2022-09-23T02:51:35.130Z,0.98
2022-09-23T02:54:03.552Z,0.88
2022-09-23T02:56:30.076Z,1.00
2022-09-23T02:58:57.038Z,1.23
2022-09-23T03:01:49.220Z,1.00
2022-09-23T03:04:50.417Z,1.10
2022-09-23T03:07:22.393Z,1.00
2022-09-23T03:10:07.950Z,0.80
2022-09-23T03:12:42.262Z,1.00
2022-09-23T03:15:30.130Z,0.95
2022-09-23T03:18:15.986Z,0.98
2022-09-23T03:20:50.430Z,0.98
2022-09-23T03:23:21.487Z,0.90
2022-09-23T03:25:49.891Z,1.00
2022-09-23T03:28:17.623Z,1.13
2022-09-23T03:30:44.648Z,1.08
2022-09-23T03:33:13.360Z,1.00
2022-09-23T03:36:07.113Z,1.50
2022-09-23T03:38:39.118Z,0.98
2022-09-23T03:41:06.044Z,1.20
2022-09-23T03:43:38.012Z,1.25
2022-09-23T03:46:07.293Z,1.23
2022-09-23T03:48:34.018Z,1.08
2022-09-23T03:51:09.045Z,1.20
2022-09-23T03:53:35.731Z,1.08
2022-09-23T03:56:02.337Z,1.17
2022-09-23T03:58:28.798Z,1.35
2022-09-23T04:00:55.581Z,1.40
2022-09-23T04:03:22.734Z,1.35
2022-09-23T04:05:49.415Z,1.20
2022-09-23T04:08:15.950Z,1.00
2022-09-23T04:10:42.574Z,1.23
2022-09-23T04:13:12.253Z,1.13
2022-09-23T04:15:40.716Z,1.20
2022-09-23T04:18:07.466Z,1.23
2022-09-23T04:20:34.010Z,1.00
2022-09-23T04:23:00.499Z,1.17
2022-09-23T04:25:27.232Z,1.08
2022-09-23T04:27:53.839Z,1.13
2022-09-23T04:30:20.471Z,1.00
2022-09-23T04:32:47.007Z,1.25
2022-09-23T04:35:13.563Z,1.20
2022-09-23T04:37:40.098Z,1.10
2022-09-23T04:40:08.119Z,0.93
2022-09-23T04:42:34.842Z,1.20
2022-09-23T04:45:01.607Z,1.00
2022-09-23T04:47:29.278Z,1.10
2022-09-23T04:49:59.707Z,1.10
2022-09-23T04:52:27.207Z,1.10
2022-09-23T04:54:53.705Z,1.10
2022-09-23T04:57:20.170Z,1.10
2022-09-23T04:59:47.314Z,1.27
2022-09-23T05:02:14.842Z,1.30
2022-09-23T05:04:41.754Z,1.30
2022-09-23T05:07:08.228Z,1.10
2022-09-23T05:09:34.842Z,1.40
2022-09-23T05:12:02.145Z,1.40
2022-09-23T05:14:28.716Z,1.20
2022-09-23T05:16:55.205Z,1.25
2022-09-23T05:19:23.035Z,1.20
2022-09-23T05:21:49.681Z,1.38
2022-09-23T05:24:16.751Z,1.65
2022-09-23T05:26:43.489Z,1.80
2022-09-23T05:29:10.058Z,1.70
2022-09-23T05:31:36.941Z,1.73
2022-09-23T05:34:05.242Z,1.63
2022-09-23T05:36:37.946Z,1.98
2022-09-23T05:39:06.030Z,1.58
2022-09-23T05:41:33.843Z,1.63
2022-09-23T05:44:00.522Z,1.30
2022-09-23T05:46:29.512Z,1.52
2022-09-23T05:49:01.822Z,1.40
2022-09-23T05:51:31.174Z,1.30
2022-09-23T05:53:58.910Z,1.33
2022-09-23T05:56:27.703Z,1.27
2022-09-23T05:58:55.900Z,1.40
2022-09-23T06:01:25.466Z,1.33
2022-09-23T06:03:52.850Z,1.10
2022-09-23T06:06:21.556Z,1.50
2022-09-23T06:08:48.250Z,1.30
2022-09-23T06:11:15.094Z,1.20
2022-09-23T06:13:41.867Z,1.23
2022-09-23T06:16:14.188Z,1.35
2022-09-23T06:18:42.207Z,1.30
2022-09-23T06:21:10.625Z,1.20
2022-09-23T06:23:39.886Z,1.20
2022-09-23T06:26:10.675Z,1.40
2022-09-23T06:28:38.906Z,1.20
2022-09-23T06:31:13.304Z,1.17
2022-09-23T06:33:40.689Z,1.20
2022-09-23T06:36:07.792Z,1.27
2022-09-23T06:38:34.941Z,1.13
2022-09-23T06:41:04.528Z,0.98
2022-09-23T06:43:31.259Z,1.42
2022-09-23T06:46:00.030Z,1.10
2022-09-23T06:48:29.119Z,1.20
2022-09-23T06:50:59.944Z,1.20
2022-09-23T06:53:26.425Z,1.37
2022-09-23T06:56:11.516Z,1.05
2022-09-23T06:58:39.030Z,1.20
2022-09-23T07:01:08.739Z,1.13
2022-09-23T07:03:36.173Z,1.20
2022-09-23T07:06:03.491Z,1.08
2022-09-23T07:08:30.752Z,1.20
2022-09-23T07:10:59.035Z,1.23
2022-09-23T07:13:26.065Z,1.20
2022-09-23T07:15:54.420Z,1.10
2022-09-23T07:18:23.905Z,1.25
2022-09-23T07:20:50.593Z,1.00
2022-09-23T07:23:20.061Z,1.10
2022-09-23T07:25:50.293Z,1.15
2022-09-23T07:28:17.391Z,0.93
2022-09-23T07:30:56.654Z,1.15
2022-09-23T07:33:33.035Z,1.38
2022-09-23T07:36:13.416Z,1.00
2022-09-23T07:38:44.932Z,1.27
2022-09-23T07:41:14.231Z,1.10
2022-09-23T07:43:40.825Z,0.95
2022-09-23T07:46:10.986Z,1.10
2022-09-23T07:48:38.279Z,1.38
2022-09-23T07:51:09.628Z,1.40
2022-09-23T07:53:36.857Z,1.30
2022-09-23T07:56:07.419Z,1.50
2022-09-23T07:58:35.196Z,1.20
2022-09-23T08:01:05.503Z,1.10
2022-09-23T08:03:32.398Z,1.10
2022-09-23T08:06:13.069Z,0.80
2022-09-23T08:08:43.645Z,1.00
2022-09-23T08:11:12.439Z,0.90
2022-09-23T08:13:39.204Z,0.90
2022-09-23T08:16:06.811Z,1.00
2022-09-23T08:18:33.618Z,0.90
2022-09-23T08:21:00.181Z,1.00
2022-09-23T08:23:27.721Z,0.90
2022-09-23T08:25:59.892Z,0.80
2022-09-23T08:28:26.615Z,0.90
2022-09-23T08:30:53.162Z,1.10
2022-09-23T08:33:23.403Z,1.00
2022-09-23T08:35:50.932Z,1.00
2022-09-23T08:38:17.569Z,0.90
2022-09-23T08:40:48.807Z,1.08
2022-09-23T08:43:27.521Z,0.90
2022-09-23T08:45:55.860Z,0.93
2022-09-23T08:48:46.384Z,0.82
2022-09-23T08:51:15.954Z,0.90
2022-09-23T08:53:42.963Z,0.60
2022-09-23T08:56:18.200Z,1.00
2022-09-23T08:59:17.038Z,0.90
2022-09-23T09:01:52.598Z,1.05
2022-09-23T09:04:40.629Z,0.70
2022-09-23T09:07:31.804Z,0.70
2022-09-23T09:10:15.969Z,1.00
2022-09-23T09:13:04.152Z,0.80
2022-09-23T09:15:31.006Z,0.73
2022-09-23T09:18:01.380Z,0.63
2022-09-23T09:21:09.453Z,0.95
2022-09-23T09:23:43.082Z,0.98
2022-09-23T09:33:27.585Z,0.77
2022-09-23T09:36:09.077Z,0.63
2022-09-23T09:41:21.498Z,0.70
2022-09-23T09:43:57.600Z,0.70
2022-09-23T09:46:24.470Z,0.70
2022-09-23T09:48:54.762Z,0.65
2022-09-23T09:51:27.656Z,0.73
2022-09-23T09:53:56.065Z,0.70
2022-09-23T09:56:31.042Z,0.80
2022-09-23T09:59:25.123Z,0.70
2022-09-23T10:02:31.774Z,0.70
2022-09-23T10:05:01.014Z,0.70
2022-09-23T10:07:34.434Z,0.77
2022-09-23T10:10:33.944Z,0.90
2022-09-23T10:13:15.096Z,1.00
2022-09-23T10:15:45.005Z,1.00
2022-09-23T10:18:19.837Z,0.70
2022-09-23T10:20:46.765Z,0.90
2022-09-23T10:23:23.003Z,0.80
2022-09-23T10:26:03.563Z,0.90
2022-09-23T10:28:41.969Z,0.70
2022-09-23T10:31:15.679Z,0.80
2022-09-23T10:33:50.925Z,0.93
2022-09-23T10:36:18.593Z,0.95
2022-09-23T10:38:49.052Z,0.70
2022-09-23T10:42:08.765Z,0.85
2022-09-23T10:45:22.746Z,0.65
2022-09-23T10:48:16.631Z,0.82
2022-09-23T10:50:49.774Z,0.73
2022-09-23T10:53:36.473Z,0.60
2022-09-23T10:56:42.668Z,0.70
2022-09-23T10:59:29.208Z,0.70
2022-09-23T11:02:18.993Z,0.60
2022-09-23T11:05:16.682Z,0.60
2022-09-23T11:08:12.511Z,0.60
2022-09-23T11:10:57.619Z,0.70
2022-09-23T11:13:43.762Z,0.70
2022-09-23T11:16:55.531Z,0.70
2022-09-23T11:19:33.101Z,0.70
2022-09-23T11:22:32.220Z,0.60
2022-09-23T11:25:11.964Z,0.60
2022-09-23T11:28:09.947Z,0.60
2022-09-23T11:30:59.769Z,0.60
2022-09-23T11:33:59.392Z,0.70
2022-09-23T11:36:42.347Z,0.70
2022-09-23T11:39:50.665Z,0.60
2022-09-23T11:42:27.808Z,0.80
2022-09-23T11:45:17.213Z,0.77
2022-09-23T11:47:50.104Z,0.93
2022-09-23T11:50:32.093Z,0.65
2022-09-23T11:53:29.712Z,0.80
2022-09-23T11:56:03.518Z,0.70
2022-09-23T11:58:44.065Z,0.60
2022-09-23T12:01:45.535Z,0.60
2022-09-23T12:04:23.775Z,0.70
2022-09-23T12:07:02.433Z,0.73
2022-09-23T12:09:57.746Z,0.60
2022-09-23T12:12:50.630Z,0.80
2022-09-23T12:15:21.971Z,0.60
2022-09-23T12:18:38.480Z,0.82
2022-09-23T12:21:48.678Z,0.80
2022-09-23T12:24:20.800Z,0.80
2022-09-23T12:26:57.832Z,0.70
2022-09-23T12:34:30.242Z,0.60
2022-09-23T12:37:04.774Z,0.80
2022-09-23T12:39:36.225Z,0.60
2022-09-23T12:44:44.401Z,0.65
2022-09-23T12:47:25.720Z,0.65
2022-09-23T12:49:54.159Z,0.70
2022-09-23T12:52:21.174Z,0.70
2022-09-23T12:54:50.101Z,0.60
2022-09-23T12:57:35.032Z,0.60
2022-09-23T13:00:14.022Z,0.45
2022-09-23T13:02:44.170Z,0.68
2022-09-23T13:05:37.942Z,0.57
2022-09-23T13:08:17.622Z,0.70
2022-09-23T13:10:56.158Z,0.70
2022-09-23T13:13:23.089Z,0.50
2022-09-23T13:15:50.179Z,0.80
2022-09-23T13:18:20.333Z,0.65
2022-09-23T13:20:49.744Z,0.80
2022-09-23T13:23:30.668Z,0.75
2022-09-23T13:26:00.136Z,1.00
2022-09-23T13:28:58.944Z,1.00
2022-09-23T13:31:26.136Z,0.77
2022-09-23T13:34:01.019Z,0.70
2022-09-23T13:36:27.583Z,0.80
2022-09-23T13:39:16.690Z,0.80
2022-09-23T13:41:44.521Z,0.80
2022-09-23T13:44:19.749Z,0.70
2022-09-23T13:46:52.081Z,0.80
2022-09-23T13:49:21.704Z,0.70
2022-09-23T13:51:48.394Z,0.70
2022-09-23T13:54:36.655Z,0.63
2022-09-23T13:57:03.798Z,0.70
2022-09-23T13:59:37.115Z,0.63
2022-09-23T14:02:10.747Z,0.75
2022-09-23T14:04:37.295Z,0.60
2022-09-23T14:07:04.478Z,0.73
2022-09-23T14:09:32.036Z,0.70
2022-09-23T14:12:00.198Z,0.60
2022-09-23T14:14:28.132Z,0.82
2022-09-23T14:16:56.056Z,0.70
2022-09-23T14:19:23.948Z,0.50
2022-09-23T14:21:53.018Z,0.80
2022-09-23T14:24:23.126Z,0.70
2022-09-23T14:26:56.718Z,1.10
2022-09-23T14:29:32.075Z,0.70
2022-09-23T14:32:01.901Z,0.70
2022-09-23T14:34:49.850Z,0.70
2022-09-23T14:37:51.405Z,0.60
2022-09-23T14:40:22.394Z,0.73
2022-09-23T14:42:52.563Z,0.85
2022-09-23T14:45:21.951Z,0.68
2022-09-23T14:47:51.411Z,0.80
2022-09-23T14:50:47.313Z,0.80
2022-09-23T14:53:22.846Z,1.00
2022-09-23T14:55:57.451Z,0.70
2022-09-23T14:58:28.590Z,0.88
2022-09-23T15:01:00.765Z,0.70
2022-09-23T15:03:28.587Z,0.73
2022-09-23T15:06:08.371Z,0.85
2022-09-23T15:08:35.525Z,0.80
2022-09-23T15:11:08.183Z,0.80
2022-09-23T15:13:39.373Z,0.80
2022-09-23T15:16:06.291Z,0.80
2022-09-23T15:18:35.452Z,0.70
2022-09-23T15:21:15.196Z,0.60
2022-09-23T15:23:41.682Z,0.82
2022-09-23T15:26:16.877Z,0.80
2022-09-23T15:28:44.208Z,0.60
2022-09-23T15:31:15.830Z,0.70
2022-09-23T15:33:44.158Z,0.80
2022-09-23T15:36:21.656Z,0.70
2022-09-23T15:38:48.817Z,0.70
2022-09-23T15:41:17.273Z,0.80
2022-09-23T15:43:44.116Z,0.70
2022-09-23T15:46:25.522Z,0.70
2022-09-23T15:48:59.078Z,0.70
2022-09-23T15:51:26.774Z,0.90
2022-09-23T15:53:55.151Z,0.80
2022-09-23T15:56:24.855Z,0.88
2022-09-23T15:58:51.413Z,0.80
2022-09-23T16:01:26.288Z,0.70
2022-09-23T16:03:52.817Z,0.63
2022-09-23T16:06:20.318Z,0.60
2022-09-23T16:08:47.295Z,0.80
2022-09-23T16:11:21.870Z,0.90
2022-09-23T16:13:48.484Z,0.80
2022-09-23T16:16:15.086Z,0.73
2022-09-23T16:18:43.813Z,0.70
2022-09-23T16:21:15.004Z,0.90
2022-09-23T16:23:43.529Z,0.77
2022-09-23T16:26:22.014Z,0.80
2022-09-23T16:28:50.319Z,0.80
2022-09-23T16:31:17.367Z,0.90
2022-09-23T16:33:47.906Z,0.90
2022-09-23T16:36:22.309Z,1.00
2022-09-23T16:38:48.908Z,0.90
2022-09-23T16:41:15.471Z,0.80
2022-09-23T16:43:41.940Z,1.10
2022-09-23T16:46:12.319Z,1.00
2022-09-23T16:48:40.741Z,1.08
2022-09-23T16:51:31.632Z,1.00
2022-09-23T16:53:59.615Z,1.00
2022-09-23T16:56:29.064Z,1.05
2022-09-23T16:58:56.514Z,1.02
2022-09-23T17:01:43.782Z,1.20
2022-09-23T17:04:10.700Z,1.05
2022-09-23T17:06:48.292Z,1.20
2022-09-23T17:09:14.817Z,1.30
2022-09-23T17:11:43.922Z,1.40
2022-09-23T17:14:10.492Z,1.40
2022-09-23T17:16:37.074Z,1.20
2022-09-23T17:19:08.158Z,1.02
2022-09-23T17:24:56.168Z,1.17
2022-09-23T17:27:24.882Z,1.20
2022-09-23T17:29:51.348Z,1.17
2022-09-23T17:32:18.087Z,1.00
2022-09-23T17:34:44.835Z,0.90
2022-09-23T17:37:11.310Z,1.08
2022-09-23T17:39:38.277Z,0.80
2022-09-23T17:42:05.077Z,1.00
2022-09-23T17:44:40.578Z,0.95
2022-09-23T17:47:07.036Z,0.75
2022-09-23T17:49:35.244Z,1.02
2022-09-23T17:52:05.304Z,0.90
2022-09-23T17:54:32.604Z,0.80
2022-09-23T17:56:59.893Z,1.00
2022-09-23T17:59:26.856Z,0.80
2022-09-23T18:01:54.124Z,0.70
2022-09-23T18:04:21.165Z,0.70
2022-09-23T18:06:47.812Z,0.70
2022-09-23T18:09:14.349Z,0.73
2022-09-23T18:11:43.364Z,0.80
2022-09-23T18:14:13.649Z,0.80
2022-09-23T18:16:41.904Z,0.70
2022-09-23T18:19:11.460Z,0.77
2022-09-23T18:21:40.803Z,0.80
2022-09-23T18:27:02.264Z,0.70
2022-09-23T18:29:29.509Z,0.70
2022-09-23T18:31:58.409Z,0.70
2022-09-23T18:34:26.363Z,0.70
2022-09-23T18:36:56.212Z,0.65
2022-09-23T18:39:22.821Z,0.70
2022-09-23T18:41:50.349Z,0.70
2022-09-23T18:44:17.408Z,0.60
2022-09-23T18:46:46.188Z,0.70
2022-09-23T18:49:32.567Z,1.25
2022-09-23T18:52:00.524Z,0.70
2022-09-23T18:54:28.670Z,0.70
2022-09-23T18:56:56.004Z,0.63
2022-09-23T18:59:26.793Z,0.73
2022-09-23T19:01:56.294Z,0.60
2022-09-23T19:04:24.920Z,0.70
2022-09-23T19:06:51.937Z,0.80
2022-09-23T19:09:19.352Z,0.60
2022-09-23T19:11:47.043Z,0.68
2022-09-23T19:14:15.591Z,0.50
2022-09-23T19:16:45.156Z,0.68
2022-09-23T19:19:12.782Z,0.60
2022-09-23T19:21:40.204Z,0.70
2022-09-23T19:24:12.186Z,0.60
2022-09-23T19:26:40.367Z,0.70
2022-09-23T19:29:13.249Z,0.70
2022-09-23T19:31:40.575Z,0.75
2022-09-23T19:34:18.759Z,0.70
2022-09-23T19:36:48.983Z,0.75
2022-09-23T19:39:20.583Z,0.60
2022-09-23T19:44:16.794Z,0.60
2022-09-23T19:46:45.712Z,0.60
2022-09-23T19:49:13.919Z,0.60
2022-09-23T19:51:40.892Z,0.80
2022-09-23T19:54:10.731Z,0.60
2022-09-23T19:56:38.784Z,0.90
2022-09-23T19:59:09.639Z,0.63
2022-09-23T20:01:36.414Z,0.77
2022-09-23T20:04:05.249Z,0.80
2022-09-23T20:06:35.248Z,0.70
2022-09-23T20:09:02.200Z,1.00
2022-09-23T20:11:31.728Z,0.70
2022-09-23T20:14:09.513Z,0.77
2022-09-23T20:16:37.180Z,0.80
2022-09-23T20:19:07.153Z,0.70
2022-09-23T20:21:34.324Z,0.80
2022-09-23T20:24:04.417Z,0.60
2022-09-23T20:26:50.689Z,0.73
2022-09-23T20:29:19.412Z,0.70
2022-09-23T20:31:47.527Z,0.70
2022-09-23T20:34:16.565Z,0.70
2022-09-23T20:36:44.229Z,0.70
2022-09-23T20:39:12.429Z,0.90
2022-09-23T20:41:39.854Z,0.90
2022-09-23T20:44:12.236Z,0.80
2022-09-23T20:46:48.181Z,0.70
2022-09-23T20:49:18.745Z,0.90
2022-09-23T20:51:47.670Z,0.70
2022-09-23T20:54:14.249Z,0.70
2022-09-23T20:56:40.757Z,0.70
2022-09-23T20:59:08.410Z,0.70
2022-09-23T21:01:37.765Z,0.68
2022-09-23T21:04:06.226Z,0.90
2022-09-23T21:06:35.506Z,0.80
2022-09-23T21:09:02.185Z,0.73
2022-09-23T21:11:29.261Z,0.70
2022-09-23T21:13:56.531Z,0.80
2022-09-23T21:16:23.999Z,0.60
2022-09-23T21:18:51.600Z,0.73
2022-09-23T21:21:19.653Z,0.70
2022-09-23T21:23:46.728Z,0.70
2022-09-23T21:26:18.129Z,0.60
2022-09-23T21:28:50.071Z,0.77
2022-09-23T21:31:25.994Z,0.80
2022-09-23T21:33:57.008Z,0.70
2022-09-23T21:36:24.586Z,0.80
2022-09-23T21:38:52.014Z,0.68
2022-09-23T21:41:19.334Z,0.70
2022-09-23T21:43:46.299Z,0.60
2022-09-23T21:46:14.614Z,0.60
2022-09-23T21:48:44.390Z,0.85
2022-09-23T21:51:14.287Z,0.70
2022-09-23T21:53:42.006Z,0.57
2022-09-23T21:56:09.664Z,0.70
2022-09-23T21:58:38.594Z,0.65
2022-09-23T22:01:14.162Z,0.70
2022-09-23T22:03:41.110Z,0.60
2022-09-23T22:06:10.613Z,0.85
2022-09-23T22:08:39.222Z,0.60
2022-09-23T22:11:33.583Z,0.50
2022-09-23T22:14:03.062Z,0.60
2022-09-23T22:16:30.281Z,0.63
2022-09-23T22:18:58.480Z,0.63
2022-09-23T22:21:26.679Z,0.80
2022-09-23T22:23:57.627Z,0.80
2022-09-23T22:26:24.939Z,0.57
2022-09-23T22:29:09.957Z,0.60
2022-09-23T22:31:54.837Z,0.70
2022-09-23T22:34:48.016Z,0.70
2022-09-23T22:37:10.507Z,0.60
2022-09-23T22:39:37.047Z,0.80
2022-09-23T22:42:05.308Z,0.70
2022-09-23T22:44:32.115Z,0.70
2022-09-23T22:46:58.971Z,0.80
2022-09-23T22:49:25.482Z,0.80
2022-09-23T22:51:53.580Z,0.90
2022-09-23T22:54:22.202Z,1.00
2022-09-23T22:56:48.689Z,0.93
2022-09-23T22:59:15.166Z,0.95
2022-09-23T23:01:42.639Z,0.88
2022-09-23T23:04:11.208Z,1.02
2022-09-23T23:06:37.958Z,1.20
2022-09-23T23:09:09.449Z,1.10
2022-09-23T23:11:36.117Z,1.02
2022-09-23T23:14:03.157Z,0.90
2022-09-23T23:16:35.494Z,0.98
2022-09-23T23:19:04.598Z,1.15
2022-09-23T23:21:31.208Z,1.00
2022-09-23T23:23:57.837Z,1.00
2022-09-23T23:26:29.934Z,0.90
2022-09-23T23:28:56.996Z,0.88
2022-09-23T23:31:25.458Z,0.90
2022-09-23T23:33:52.168Z,0.85
2022-09-23T23:36:20.069Z,1.00
2022-09-23T23:38:47.632Z,1.00
2022-09-23T23:41:16.468Z,1.08
2022-09-23T23:43:46.040Z,0.85
2022-09-23T23:46:13.786Z,0.90
2022-09-23T23:48:41.824Z,0.95
2022-09-23T23:51:11.077Z,1.00
2022-09-23T23:53:39.881Z,0.98
2022-09-23T23:56:15.017Z,0.90
2022-09-23T23:58:41.698Z,0.93
